createdAt,value
2022-12-20T00:01:24.364Z,4.10
2022-12-20T00:03:52.415Z,4.30
2022-12-20T00:06:19.670Z,4.20
2022-12-20T00:08:46.791Z,4.10
2022-12-20T00:11:15.567Z,3.90
2022-12-20T00:13:42.180Z,3.90
2022-12-20T00:16:12.965Z,3.90
2022-12-20T00:18:41.097Z,3.90
2022-12-20T00:21:10.885Z,4.00
2022-12-20T00:23:38.209Z,4.00
2022-12-20T00:26:10.360Z,4.10
2022-12-20T00:28:38.514Z,4.10
2022-12-20T00:31:06.095Z,4.00
2022-12-20T00:33:33.772Z,4.10
2022-12-20T00:36:00.423Z,4.10
2022-12-20T00:38:27.521Z,4.20
2022-12-20T00:41:24.751Z,4.30
2022-12-20T00:43:52.196Z,4.20
2022-12-20T00:46:20.575Z,4.20
2022-12-20T00:48:47.775Z,4.20
2022-12-20T00:51:17.044Z,4.20
2022-12-20T00:53:44.604Z,4.30
2022-12-20T00:56:11.549Z,4.30
2022-12-20T00:58:40.741Z,4.30
2022-12-20T01:01:15.458Z,4.30
2022-12-20T01:03:42.619Z,4.30
2022-12-20T01:06:10.731Z,4.30
2022-12-20T01:08:37.499Z,4.40
2022-12-20T01:11:07.840Z,4.40
2022-12-20T01:13:37.779Z,4.40
2022-12-20T01:16:10.667Z,4.40
2022-12-20T01:18:37.371Z,4.30
2022-12-20T01:21:06.087Z,4.20
2022-12-20T01:23:32.980Z,4.30
2022-12-20T01:26:04.917Z,4.20
2022-12-20T01:28:32.398Z,4.20
2022-12-20T01:30:59.099Z,4.10
2022-12-20T01:33:25.770Z,4.20
2022-12-20T01:36:00.427Z,4.20
2022-12-20T01:38:27.760Z,4.10
2022-12-20T01:40:55.571Z,4.00
2022-12-20T01:43:22.488Z,4.00
2022-12-20T01:45:49.353Z,4.00
2022-12-20T01:48:25.743Z,4.00
2022-12-20T01:50:53.209Z,3.90
2022-12-20T01:53:22.780Z,3.80
2022-12-20T01:55:49.624Z,3.80
2022-12-20T01:58:19.263Z,3.60
2022-12-20T02:00:46.260Z,3.60
2022-12-20T02:03:14.920Z,3.50
2022-12-20T02:05:45.632Z,3.50
2022-12-20T02:08:15.655Z,3.50
2022-12-20T02:10:54.777Z,3.50
2022-12-20T02:13:30.129Z,3.60
2022-12-20T02:15:58.340Z,3.50
2022-12-20T02:18:47.590Z,3.40
2022-12-20T02:21:47.677Z,3.20
2022-12-20T02:24:28.657Z,3.10
2022-12-20T02:27:19.916Z,3.00
2022-12-20T02:30:10.355Z,3.00
2022-12-20T02:32:42.598Z,2.90
2022-12-20T02:35:10.587Z,2.90
2022-12-20T02:37:37.286Z,3.00
2022-12-20T02:40:05.261Z,3.00
2022-12-20T02:42:33.243Z,3.00
2022-12-20T02:45:17.941Z,3.00
2022-12-20T02:48:25.399Z,3.00
2022-12-20T02:50:54.176Z,2.90
2022-12-20T02:53:22.260Z,2.90
2022-12-20T02:55:56.919Z,2.90
2022-12-20T03:01:55.241Z,2.80
2022-12-20T03:04:28.513Z,2.80
2022-12-20T03:07:03.525Z,2.70
2022-12-20T03:09:31.655Z,2.70
2022-12-20T03:11:58.440Z,2.70
2022-12-20T03:14:26.139Z,2.70
2022-12-20T03:16:52.989Z,2.70
2022-12-20T03:19:19.674Z,2.80
2022-12-20T03:21:46.750Z,2.80
2022-12-20T03:24:14.597Z,2.80
2022-12-20T03:26:41.921Z,2.70
2022-12-20T03:29:08.708Z,2.70
2022-12-20T03:31:35.948Z,2.70
2022-12-20T03:34:02.868Z,2.70
2022-12-20T03:36:29.584Z,2.80
2022-12-20T03:38:56.666Z,2.70
2022-12-20T03:41:24.440Z,2.60
2022-12-20T03:43:52.982Z,2.60
2022-12-20T03:46:19.755Z,2.60
2022-12-20T03:48:46.457Z,2.60
2022-12-20T03:51:13.097Z,2.60
2022-12-20T03:53:39.707Z,2.60
2022-12-20T03:56:06.699Z,2.60
2022-12-20T03:58:33.307Z,2.60
2022-12-20T04:01:00.036Z,2.60
2022-12-20T04:03:26.924Z,2.60
2022-12-20T04:05:53.565Z,2.60
2022-12-20T04:08:20.155Z,2.60
2022-12-20T04:11:05.500Z,2.70
2022-12-20T04:13:32.154Z,2.60
2022-12-20T04:16:00.829Z,2.60
2022-12-20T04:18:27.964Z,2.60
2022-12-20T04:20:55.241Z,2.70
2022-12-20T04:23:30.578Z,2.70
2022-12-20T04:25:57.180Z,2.60
2022-12-20T04:28:23.779Z,2.60
2022-12-20T04:30:50.442Z,2.50
2022-12-20T04:33:18.188Z,2.50
2022-12-20T04:35:44.914Z,2.50
2022-12-20T04:38:11.573Z,2.50
2022-12-20T04:40:38.393Z,2.50
2022-12-20T04:43:05.087Z,2.50
2022-12-20T04:45:31.713Z,2.50
2022-12-20T04:47:58.322Z,2.50
2022-12-20T04:50:26.039Z,2.60
2022-12-20T04:53:11.271Z,2.50
2022-12-20T04:55:38.956Z,2.50
2022-12-20T04:58:07.866Z,2.50
2022-12-20T05:00:35.237Z,2.60
2022-12-20T05:03:02.233Z,2.50
2022-12-20T05:05:29.137Z,2.40
2022-12-20T05:07:56.304Z,2.50
2022-12-20T05:10:23.094Z,2.40
2022-12-20T05:12:49.865Z,2.40
2022-12-20T05:15:16.518Z,2.40
2022-12-20T05:17:43.213Z,2.50
2022-12-20T05:20:10.571Z,2.60
2022-12-20T05:22:55.994Z,2.60
2022-12-20T05:25:41.216Z,2.60
2022-12-20T05:28:08.130Z,2.60
2022-12-20T05:30:34.828Z,2.50
2022-12-20T05:33:01.458Z,2.40
2022-12-20T05:35:28.160Z,2.40
2022-12-20T05:37:55.061Z,2.40
2022-12-20T05:40:22.338Z,2.40
2022-12-20T05:42:48.944Z,2.30
2022-12-20T05:45:15.600Z,2.30
2022-12-20T05:47:42.201Z,2.40
2022-12-20T05:50:12.343Z,2.40
2022-12-20T05:52:43.380Z,2.50
2022-12-20T05:55:10.670Z,2.50
2022-12-20T05:57:37.309Z,2.50
2022-12-20T06:00:05.946Z,2.50
2022-12-20T06:02:32.807Z,2.50
2022-12-20T06:04:59.706Z,2.50
2022-12-20T06:07:28.978Z,2.50
2022-12-20T06:09:56.523Z,2.60
2022-12-20T06:12:23.450Z,2.60
2022-12-20T06:14:50.383Z,2.70
2022-12-20T06:17:17.337Z,2.90
2022-12-20T06:19:43.982Z,3.10
2022-12-20T06:22:10.795Z,3.30
2022-12-20T06:24:44.308Z,3.40
2022-12-20T06:27:14.506Z,3.50
2022-12-20T06:29:41.185Z,3.60
2022-12-20T06:32:07.883Z,3.60
2022-12-20T06:34:34.570Z,3.70
2022-12-20T06:37:01.192Z,3.80
2022-12-20T06:39:30.989Z,3.50
2022-12-20T06:41:57.590Z,3.90
2022-12-20T06:44:24.186Z,3.90
2022-12-20T06:46:50.912Z,3.90
2022-12-20T06:49:17.615Z,4.10
2022-12-20T06:51:44.250Z,4.20
2022-12-20T06:54:10.874Z,4.20
2022-12-20T06:56:41.263Z,4.30
2022-12-20T06:59:08.411Z,4.40
2022-12-20T07:01:36.378Z,4.40
2022-12-20T07:04:03.243Z,4.30
2022-12-20T07:06:29.879Z,3.60
2022-12-20T07:08:56.558Z,4.30
2022-12-20T07:11:23.206Z,4.20
2022-12-20T07:13:50.333Z,4.20
2022-12-20T07:16:17.020Z,4.20
2022-12-20T07:18:43.710Z,4.40
2022-12-20T07:21:10.389Z,4.40
2022-12-20T07:23:37.094Z,4.40
2022-12-20T07:26:04.053Z,4.30
2022-12-20T07:28:30.873Z,4.20
2022-12-20T07:31:02.058Z,4.20
2022-12-20T07:33:29.334Z,4.30
2022-12-20T07:36:07.890Z,4.30
2022-12-20T07:38:35.675Z,4.30
2022-12-20T07:41:08.286Z,4.30
2022-12-20T07:43:37.830Z,4.30
2022-12-20T07:46:05.658Z,4.30
2022-12-20T07:48:32.982Z,4.20
2022-12-20T07:51:03.169Z,4.20
2022-12-20T07:53:32.960Z,4.30
2022-12-20T07:56:02.687Z,3.70
2022-12-20T07:58:37.151Z,4.40
2022-12-20T08:01:04.986Z,4.00
2022-12-20T08:03:38.902Z,4.00
2022-12-20T08:06:07.255Z,3.90
2022-12-20T08:08:37.954Z,4.10
2022-12-20T08:13:38.165Z,4.00
2022-12-20T08:16:09.266Z,4.00
2022-12-20T08:18:35.911Z,3.90
2022-12-20T08:21:02.554Z,3.90
2022-12-20T08:23:29.231Z,3.80
2022-12-20T08:25:55.820Z,3.90
2022-12-20T08:28:24.003Z,4.00
2022-12-20T08:30:50.776Z,3.90
2022-12-20T08:33:17.660Z,4.20
2022-12-20T08:35:44.304Z,4.20
2022-12-20T08:38:11.146Z,4.30
2022-12-20T08:40:37.780Z,4.20
2022-12-20T08:43:09.951Z,5.60
2022-12-20T08:45:37.143Z,4.20
2022-12-20T08:48:03.920Z,4.20
2022-12-20T08:50:30.505Z,4.20
2022-12-20T08:52:57.153Z,4.20
2022-12-20T08:55:29.179Z,4.10
2022-12-20T08:57:56.326Z,4.30
2022-12-20T09:00:23.032Z,4.30
2022-12-20T09:02:51.862Z,4.30
2022-12-20T09:05:21.816Z,3.70
2022-12-20T09:07:48.422Z,4.10
2022-12-20T09:10:16.205Z,4.10
2022-12-20T09:12:42.829Z,5.10
2022-12-20T09:15:10.522Z,4.10
2022-12-20T09:17:37.184Z,4.30
2022-12-20T09:20:05.277Z,4.30
2022-12-20T09:22:31.858Z,4.40
2022-12-20T09:24:58.457Z,4.40
2022-12-20T09:27:25.052Z,4.30
2022-12-20T09:29:51.958Z,4.30
2022-12-20T09:32:18.552Z,4.50
2022-12-20T09:34:45.181Z,4.30
2022-12-20T09:37:13.845Z,4.20
2022-12-20T09:39:40.487Z,4.30
2022-12-20T09:42:09.230Z,4.10
2022-12-20T09:44:41.383Z,4.30
2022-12-20T09:47:18.115Z,4.30
2022-12-20T09:49:48.315Z,4.30
2022-12-20T09:52:35.116Z,4.30
2022-12-20T09:55:07.805Z,4.40
2022-12-20T09:57:56.396Z,4.70
2022-12-20T10:00:23.710Z,4.80
2022-12-20T10:03:08.249Z,4.60
2022-12-20T10:05:45.961Z,4.90
2022-12-20T10:18:51.221Z,5.60
2022-12-20T10:21:35.851Z,5.80
2022-12-20T10:24:27.631Z,5.80
2022-12-20T10:26:54.389Z,6.10
2022-12-20T10:29:21.247Z,6.20
2022-12-20T10:31:54.603Z,6.10
2022-12-20T10:34:21.180Z,6.20
2022-12-20T10:37:01.423Z,6.30
2022-12-20T10:39:41.957Z,6.30
2022-12-20T10:42:26.018Z,6.50
2022-12-20T10:44:53.708Z,6.50
2022-12-20T10:47:31.859Z,6.50
2022-12-20T10:50:18.139Z,6.60
2022-12-20T10:52:46.064Z,6.50
2022-12-20T10:55:35.562Z,6.30
2022-12-20T10:58:42.214Z,6.30
2022-12-20T11:01:14.154Z,6.20
2022-12-20T11:03:51.626Z,6.00
2022-12-20T11:06:19.799Z,5.90
2022-12-20T11:08:54.002Z,5.90
2022-12-20T11:11:26.465Z,5.80
2022-12-20T11:13:54.001Z,5.70
2022-12-20T11:16:36.997Z,6.00
2022-12-20T11:19:14.284Z,6.10
2022-12-20T11:22:04.913Z,6.10
2022-12-20T11:24:57.842Z,6.10
2022-12-20T11:28:02.159Z,6.20
2022-12-20T11:30:53.990Z,6.40
2022-12-20T11:33:39.343Z,6.50
2022-12-20T11:36:30.670Z,6.40
2022-12-20T11:39:34.907Z,6.50
2022-12-20T11:42:18.216Z,6.50
2022-12-20T11:45:03.288Z,6.50
2022-12-20T11:47:46.569Z,6.60
2022-12-20T11:50:32.126Z,6.60
2022-12-20T11:53:12.808Z,6.70
2022-12-20T11:55:46.669Z,6.70
2022-12-20T11:58:23.580Z,6.80
2022-12-20T12:00:59.952Z,6.80
2022-12-20T12:03:36.891Z,6.90
2022-12-20T12:06:17.801Z,7.00
2022-12-20T12:08:50.399Z,7.20
2022-12-20T12:12:06.159Z,7.20
2022-12-20T12:14:41.650Z,7.30
2022-12-20T12:17:16.919Z,7.50
2022-12-20T12:19:48.553Z,7.50
2022-12-20T12:22:22.752Z,7.30
2022-12-20T12:24:54.315Z,7.50
2022-12-20T12:27:26.803Z,7.70
2022-12-20T12:29:56.328Z,7.60
2022-12-20T12:32:26.346Z,8.00
2022-12-20T12:35:17.646Z,7.70
2022-12-20T12:38:14.897Z,8.00
2022-12-20T12:41:18.869Z,8.00
2022-12-20T12:44:00.296Z,8.10
2022-12-20T12:46:30.282Z,8.30
2022-12-20T12:49:24.308Z,8.30
2022-12-20T12:51:53.968Z,8.40
2022-12-20T12:54:34.640Z,8.20
2022-12-20T12:57:06.684Z,8.10
2022-12-20T12:59:33.274Z,8.00
2022-12-20T13:02:05.747Z,8.00
2022-12-20T13:04:57.647Z,7.90
2022-12-20T13:07:33.266Z,8.10
2022-12-20T13:10:03.187Z,8.10
2022-12-20T13:12:38.890Z,8.00
2022-12-20T13:15:20.821Z,8.00
2022-12-20T13:18:01.775Z,7.80
2022-12-20T13:20:29.531Z,8.30
2022-12-20T13:23:08.493Z,7.90
2022-12-20T13:25:37.942Z,8.00
2022-12-20T13:28:34.101Z,7.90
2022-12-20T13:31:04.852Z,7.90
2022-12-20T13:33:44.438Z,7.80
2022-12-20T13:36:11.013Z,7.70
2022-12-20T13:38:44.781Z,7.80
2022-12-20T13:41:35.821Z,7.60
2022-12-20T13:44:14.926Z,7.60
2022-12-20T13:46:46.839Z,7.60
2022-12-20T13:49:23.827Z,7.60
2022-12-20T13:52:26.705Z,7.40
2022-12-20T13:54:56.788Z,7.50
2022-12-20T13:57:41.515Z,7.20
2022-12-20T14:00:22.361Z,7.30
2022-12-20T14:02:49.597Z,7.20
2022-12-20T14:05:31.027Z,7.10
2022-12-20T14:08:26.948Z,7.10
2022-12-20T14:10:53.934Z,7.00
2022-12-20T14:13:24.257Z,6.90
2022-12-20T14:15:52.010Z,7.00
2022-12-20T14:18:26.498Z,7.00
2022-12-20T14:21:01.825Z,6.80
2022-12-20T14:23:35.759Z,6.70
2022-12-20T14:26:03.597Z,6.60
2022-12-20T14:28:35.429Z,6.60
2022-12-20T14:31:03.699Z,6.50
2022-12-20T14:33:41.139Z,6.60
2022-12-20T14:36:20.876Z,6.70
2022-12-20T14:38:52.480Z,6.60
2022-12-20T14:41:40.833Z,6.60
2022-12-20T15:00:01.979Z,6.50
2022-12-20T15:02:54.859Z,6.50
2022-12-20T15:05:37.625Z,6.60
2022-12-20T15:08:18.215Z,6.50
2022-12-20T15:10:52.707Z,6.70
2022-12-20T15:13:22.089Z,6.60
2022-12-20T15:15:48.966Z,6.40
2022-12-20T15:18:17.616Z,6.30
2022-12-20T15:20:47.451Z,6.10
2022-12-20T15:23:19.784Z,6.10
2022-12-20T15:25:48.483Z,6.20
2022-12-20T15:28:18.376Z,5.90
2022-12-20T15:30:47.371Z,5.90
2022-12-20T15:33:26.362Z,6.10
2022-12-20T15:35:53.891Z,6.30
2022-12-20T15:38:40.589Z,6.30
2022-12-20T15:41:31.261Z,6.30
2022-12-20T15:44:00.419Z,6.50
2022-12-20T15:46:27.702Z,6.50
2022-12-20T15:48:54.608Z,6.60
2022-12-20T15:51:27.328Z,6.60
2022-12-20T15:53:54.060Z,6.80
2022-12-20T15:56:23.410Z,6.70
2022-12-20T15:58:52.521Z,6.80
2022-12-20T16:01:28.267Z,6.70
2022-12-20T16:03:55.269Z,6.90
2022-12-20T16:06:23.074Z,6.70
2022-12-20T16:16:27.205Z,6.90
2022-12-20T16:18:54.100Z,7.00
2022-12-20T16:21:23.419Z,6.80
2022-12-20T16:23:53.503Z,6.80
2022-12-20T16:26:22.885Z,6.80
2022-12-20T16:28:51.250Z,6.50
2022-12-20T16:31:25.010Z,6.70
2022-12-20T16:33:53.394Z,6.70
2022-12-20T16:36:20.009Z,7.10
2022-12-20T16:38:46.716Z,6.60
2022-12-20T16:41:16.843Z,6.60
2022-12-20T16:43:44.767Z,6.70
2022-12-20T16:46:16.714Z,6.60
2022-12-20T16:48:43.775Z,6.70
2022-12-20T16:51:38.742Z,6.70
2022-12-20T16:54:19.691Z,6.90
2022-12-20T16:56:47.664Z,6.90
2022-12-20T16:59:19.804Z,6.70
2022-12-20T17:01:48.831Z,6.80
2022-12-20T17:04:17.763Z,6.90
2022-12-20T17:11:40.389Z,7.10
2022-12-20T17:14:12.331Z,7.00
2022-12-20T17:16:39.982Z,7.00
2022-12-20T17:19:07.004Z,7.00
2022-12-20T17:24:24.982Z,7.00
2022-12-20T17:26:52.118Z,7.00
2022-12-20T17:29:18.820Z,7.00
2022-12-20T17:31:47.759Z,7.00
2022-12-20T17:34:25.454Z,7.20
2022-12-20T17:36:54.578Z,7.30
2022-12-20T17:39:21.846Z,7.40
2022-12-20T17:41:51.909Z,7.50
2022-12-20T17:44:24.360Z,7.50
2022-12-20T17:46:51.595Z,7.50
2022-12-20T17:49:18.278Z,7.50
2022-12-20T17:51:45.570Z,7.50
2022-12-20T17:54:26.525Z,7.40
2022-12-20T17:56:54.068Z,7.30
2022-12-20T17:59:21.719Z,7.30
2022-12-20T18:01:48.755Z,7.30
2022-12-20T18:04:16.685Z,7.20
2022-12-20T18:06:45.470Z,7.20
2022-12-20T18:09:19.270Z,7.20
2022-12-20T18:11:46.396Z,7.30
2022-12-20T18:14:13.617Z,7.20
2022-12-20T18:16:40.767Z,7.20
2022-12-20T18:19:14.410Z,7.20
2022-12-20T18:21:41.655Z,7.30
2022-12-20T18:24:11.595Z,7.20
2022-12-20T18:26:38.197Z,7.10
2022-12-20T18:29:08.075Z,7.10
2022-12-20T18:31:35.437Z,7.10
2022-12-20T18:34:03.351Z,7.00
2022-12-20T18:36:34.335Z,7.00
2022-12-20T18:39:02.961Z,7.00
2022-12-20T18:41:30.607Z,6.90
2022-12-20T18:43:59.930Z,7.00
2022-12-20T18:46:28.900Z,6.90
2022-12-20T18:48:58.748Z,6.80
2022-12-20T18:51:29.050Z,6.80
2022-12-20T18:53:57.355Z,6.70
2022-12-20T18:56:26.290Z,6.70
2022-12-20T18:58:55.440Z,6.80
2022-12-20T19:01:24.906Z,7.10
2022-12-20T19:03:52.855Z,7.10
2022-12-20T19:06:20.039Z,7.20
2022-12-20T19:08:47.389Z,7.20
2022-12-20T19:11:16.862Z,7.00
2022-12-20T19:13:43.996Z,6.90
2022-12-20T19:16:16.001Z,6.90
2022-12-20T19:18:43.691Z,6.80
2022-12-20T19:21:21.576Z,6.80
2022-12-20T19:23:51.199Z,6.70
2022-12-20T19:26:19.472Z,6.60
2022-12-20T19:28:46.986Z,6.70
2022-12-20T19:31:21.708Z,6.70
2022-12-20T19:33:51.224Z,6.80
2022-12-20T19:36:24.996Z,6.70
2022-12-20T19:38:55.677Z,6.60
2022-12-20T19:41:23.562Z,6.60
2022-12-20T19:43:51.615Z,6.60
2022-12-20T19:46:25.118Z,6.60
2022-12-20T19:48:55.203Z,6.70
2022-12-20T19:51:22.852Z,6.80
2022-12-20T19:53:51.686Z,6.90
2022-12-20T19:56:21.581Z,6.90
2022-12-20T19:58:50.492Z,7.00
2022-12-20T20:01:18.015Z,7.10
2022-12-20T20:03:45.580Z,7.20
2022-12-20T20:06:19.333Z,7.30
2022-12-20T20:08:48.089Z,7.00
2022-12-20T20:11:15.038Z,7.40
2022-12-20T20:13:41.914Z,7.50
2022-12-20T20:16:10.096Z,7.70
2022-12-20T20:18:40.230Z,7.70
2022-12-20T20:21:13.978Z,7.80
2022-12-20T20:23:41.021Z,7.70
2022-12-20T20:26:10.929Z,7.80
2022-12-20T20:28:44.436Z,7.70
2022-12-20T20:31:14.227Z,7.70
2022-12-20T20:33:41.785Z,7.80
2022-12-20T20:36:12.200Z,7.90
2022-12-20T20:38:38.926Z,8.00
2022-12-20T20:41:05.693Z,7.90
2022-12-20T20:43:36.614Z,8.00
2022-12-20T20:46:06.397Z,8.20
2022-12-20T20:48:33.269Z,8.20
2022-12-20T20:51:00.061Z,8.30
2022-12-20T20:53:33.163Z,8.20
2022-12-20T20:56:01.655Z,8.10
2022-12-20T20:58:29.981Z,8.20
2022-12-20T21:01:01.402Z,8.20
2022-12-20T21:03:30.453Z,8.20
2022-12-20T21:06:34.976Z,8.10
2022-12-20T21:08:44.175Z,8.20
2022-12-20T21:11:11.408Z,8.20
2022-12-20T21:13:39.080Z,8.20
2022-12-20T21:16:11.420Z,8.30
2022-12-20T21:18:38.567Z,8.40
2022-12-20T21:21:14.370Z,8.60
2022-12-20T21:23:46.087Z,8.60
2022-12-20T21:26:14.238Z,8.60
2022-12-20T21:28:41.385Z,8.70
2022-12-20T21:31:11.427Z,8.70
2022-12-20T21:33:40.895Z,8.60
2022-12-20T21:36:16.290Z,8.60
2022-12-20T21:38:48.083Z,8.70
2022-12-20T21:41:14.844Z,8.80
2022-12-20T21:43:41.505Z,8.80
2022-12-20T21:46:11.174Z,8.70
2022-12-20T21:48:39.261Z,8.70
2022-12-20T21:51:10.011Z,8.70
2022-12-20T21:53:45.972Z,8.70
2022-12-20T21:56:12.967Z,8.70
2022-12-20T21:58:39.674Z,8.60
2022-12-20T22:01:10.165Z,8.60
2022-12-20T22:03:38.162Z,8.50
2022-12-20T22:06:05.402Z,8.60
2022-12-20T22:08:32.853Z,8.70
2022-12-20T22:11:05.682Z,8.70
2022-12-20T22:13:39.043Z,8.60
2022-12-20T22:16:08.705Z,8.70
2022-12-20T22:18:35.965Z,8.70
2022-12-20T22:21:07.863Z,8.70
2022-12-20T22:23:34.605Z,8.70
2022-12-20T22:26:06.347Z,8.80
2022-12-20T22:28:33.260Z,8.80
2022-12-20T22:31:07.513Z,8.80
2022-12-20T22:33:34.605Z,8.80
2022-12-20T22:36:08.175Z,9.00
2022-12-20T22:38:35.508Z,9.00
2022-12-20T22:41:16.660Z,9.00
2022-12-20T22:43:44.657Z,8.90
2022-12-20T22:46:12.654Z,8.90
2022-12-20T22:48:40.141Z,8.90
2022-12-20T22:51:12.723Z,8.80
2022-12-20T22:53:40.182Z,8.80
2022-12-20T22:56:07.551Z,8.80
2022-12-20T22:58:35.415Z,8.90
2022-12-20T23:01:04.708Z,8.90
2022-12-20T23:03:32.373Z,8.90
2022-12-20T23:06:01.553Z,8.90
2022-12-20T23:08:30.902Z,8.90
2022-12-20T23:11:16.420Z,9.00
2022-12-20T23:14:02.501Z,8.90
2022-12-20T23:16:29.914Z,8.80
2022-12-20T23:18:58.065Z,8.80
2022-12-20T23:21:43.725Z,8.90
2022-12-20T23:24:11.635Z,8.90
2022-12-20T23:26:40.401Z,8.90
2022-12-20T23:29:08.350Z,9.00
2022-12-20T23:31:35.320Z,9.20
2022-12-20T23:34:02.508Z,9.10
2022-12-20T23:36:30.000Z,9.10
2022-12-20T23:38:56.892Z,9.10
2022-12-20T23:41:23.789Z,9.10
2022-12-20T23:43:50.659Z,9.20
2022-12-20T23:46:19.435Z,9.20
2022-12-20T23:48:46.100Z,9.10
2022-12-20T23:51:13.297Z,9.10
2022-12-20T23:53:40.101Z,9.00
2022-12-20T23:56:12.211Z,8.90
2022-12-20T23:58:39.251Z,8.90
